createdAt,value
2022-12-03T00:01:10.443Z,100932.00
2022-12-03T00:04:13.357Z,100931.44
2022-12-03T00:07:16.449Z,100933.50
2022-12-03T00:10:19.463Z,100935.22
2022-12-03T00:13:21.915Z,100940.34
2022-12-03T00:16:24.934Z,100938.63
2022-12-03T00:19:27.689Z,100946.69
2022-12-03T00:22:31.076Z,100947.50
2022-12-03T00:25:33.621Z,100950.53
2022-12-03T00:28:36.570Z,100949.47
2022-12-03T00:31:45.486Z,100946.69
2022-12-03T00:34:49.809Z,100948.75
2022-12-03T00:37:52.423Z,100965.34
2022-12-03T00:40:55.234Z,100950.53
2022-12-03T00:43:59.978Z,100956.28
2022-12-03T00:47:02.810Z,100955.66
2022-12-03T00:50:06.144Z,100956.91
2022-12-03T00:53:09.113Z,100957.78
2022-12-03T00:56:11.912Z,100959.59
2022-12-03T00:59:14.983Z,100957.66
2022-12-03T01:02:17.678Z,100950.91
2022-12-03T01:05:20.894Z,100956.19
2022-12-03T01:08:23.456Z,100951.63
2022-12-03T01:11:38.366Z,100952.37
2022-12-03T01:14:41.062Z,100951.16
2022-12-03T01:17:46.124Z,100958.19
2022-12-03T01:20:48.731Z,100957.41
2022-12-03T01:23:52.817Z,100952.06
2022-12-03T01:26:56.659Z,100960.25
2022-12-03T01:29:59.588Z,100949.56
2022-12-03T01:33:02.253Z,100954.06
2022-12-03T01:36:05.327Z,100961.50
2022-12-03T01:39:07.980Z,100959.88
2022-12-03T01:42:24.111Z,100959.13
2022-12-03T01:45:26.635Z,100965.34
2022-12-03T01:48:41.655Z,100966.84
2022-12-03T01:51:45.115Z,100967.88
2022-12-03T01:54:54.962Z,100964.47
2022-12-03T01:58:00.603Z,100963.38
2022-12-03T02:01:13.295Z,100957.84
2022-12-03T02:04:19.642Z,100967.16
2022-12-03T02:07:31.373Z,100962.50
2022-12-03T02:10:37.755Z,100958.84
2022-12-03T02:13:41.176Z,100956.53
2022-12-03T02:16:45.107Z,100956.34
2022-12-03T02:19:48.835Z,100956.59
2022-12-03T02:23:17.688Z,100960.59
2022-12-03T02:26:20.952Z,100960.13
2022-12-03T02:29:24.153Z,100958.97
2022-12-03T02:32:27.141Z,100956.19
2022-12-03T02:35:35.166Z,100947.53
2022-12-03T02:38:38.532Z,100955.97
2022-12-03T02:41:59.612Z,100955.06
2022-12-03T02:45:14.239Z,100956.34
2022-12-03T02:48:25.984Z,100953.53
2022-12-03T02:51:30.870Z,100955.56
2022-12-03T02:54:33.892Z,100951.72
2022-12-03T02:57:39.078Z,100950.19
2022-12-03T03:00:43.390Z,100953.75
2022-12-03T03:03:48.129Z,100958.13
2022-12-03T03:06:52.045Z,100965.22
2022-12-03T03:09:55.838Z,100961.41
2022-12-03T03:12:58.621Z,100947.78
2022-12-03T03:16:06.479Z,100953.09
2022-12-03T03:19:09.499Z,100955.41
2022-12-03T03:22:19.061Z,100956.47
2022-12-03T03:25:22.530Z,100957.22
2022-12-03T03:28:26.981Z,100963.00
2022-12-03T03:31:29.568Z,100960.25
2022-12-03T03:34:33.233Z,100958.22
2022-12-03T03:37:36.678Z,100952.88
2022-12-03T03:40:40.397Z,100957.22
2022-12-03T03:43:45.686Z,100951.34
2022-12-03T03:46:48.878Z,100965.47
2022-12-03T03:49:51.652Z,100965.53
2022-12-03T03:52:55.990Z,100965.53
2022-12-03T03:55:58.786Z,100968.28
2022-12-03T03:59:03.070Z,100957.84
2022-12-03T04:02:05.721Z,100951.03
2022-12-03T04:05:16.792Z,100964.16
2022-12-03T04:08:19.614Z,100961.78
2022-12-03T04:11:40.944Z,100953.28
2022-12-03T04:14:44.835Z,100960.16
2022-12-03T04:18:07.634Z,100956.28
2022-12-03T04:21:34.469Z,100967.78
2022-12-03T04:24:37.406Z,100970.62
2022-12-03T04:27:58.366Z,100968.03
2022-12-03T04:31:21.236Z,100966.34
2022-12-03T04:34:44.920Z,100965.28
2022-12-03T04:37:47.689Z,100974.16
2022-12-03T04:41:00.849Z,100981.44
2022-12-03T04:44:22.602Z,100973.66
2022-12-03T04:47:25.120Z,100976.75
2022-12-03T04:50:28.032Z,100975.13
2022-12-03T04:53:30.493Z,100978.19
2022-12-03T04:56:33.366Z,100972.53
2022-12-03T04:59:37.323Z,100980.00
2022-12-03T05:02:40.661Z,100966.13
2022-12-03T05:05:43.263Z,100972.44
2022-12-03T05:08:46.622Z,100972.56
2022-12-03T05:11:49.244Z,100969.25
2022-12-03T05:14:52.315Z,100965.59
2022-12-03T05:17:55.118Z,100970.75
2022-12-03T05:20:58.110Z,100976.47
2022-12-03T05:24:00.945Z,100981.22
2022-12-03T05:27:03.892Z,100979.75
2022-12-03T05:30:07.191Z,100978.16
2022-12-03T05:33:11.282Z,100972.87
2022-12-03T05:36:14.169Z,100973.56
2022-12-03T05:39:17.011Z,100973.28
2022-12-03T05:42:38.422Z,100983.56
2022-12-03T05:45:43.198Z,100985.81
2022-12-03T05:48:48.369Z,100987.34
2022-12-03T05:51:55.212Z,100985.19
2022-12-03T05:55:04.590Z,100991.09
2022-12-03T05:58:07.762Z,100995.97
2022-12-03T06:01:10.222Z,100999.94
2022-12-03T06:04:15.479Z,100993.47
2022-12-03T06:07:18.077Z,101005.81
2022-12-03T06:10:23.476Z,101006.94
2022-12-03T06:13:29.224Z,101009.06
2022-12-03T06:16:32.235Z,101001.12
2022-12-03T06:19:36.216Z,100988.91
2022-12-03T06:22:39.161Z,100996.25
2022-12-03T06:25:41.613Z,101000.38
2022-12-03T06:28:47.690Z,101005.81
2022-12-03T06:31:50.242Z,100995.28
2022-12-03T06:34:53.376Z,100995.59
2022-12-03T06:37:56.167Z,100981.28
2022-12-03T06:40:59.320Z,100988.16
2022-12-03T06:44:02.200Z,100999.81
2022-12-03T06:47:05.032Z,100999.06
2022-12-03T06:50:08.912Z,101000.38
2022-12-03T06:53:11.789Z,101010.16
2022-12-03T06:56:14.411Z,101000.16
2022-12-03T06:59:18.521Z,100995.44
2022-12-03T07:02:24.675Z,100992.31
2022-12-03T07:05:28.752Z,100995.50
2022-12-03T07:08:31.542Z,101001.34
2022-12-03T07:11:40.553Z,101003.84
2022-12-03T07:14:43.484Z,101004.06
2022-12-03T07:17:46.650Z,100999.97
2022-12-03T07:20:51.154Z,101000.78
2022-12-03T07:23:55.627Z,100996.78
2022-12-03T07:26:59.216Z,101006.06
2022-12-03T07:30:02.452Z,100999.13
2022-12-03T07:33:05.192Z,100999.56
2022-12-03T07:36:09.283Z,101002.28
2022-12-03T07:39:11.874Z,101006.06
2022-12-03T07:42:14.951Z,101008.16
2022-12-03T07:45:17.735Z,101014.00
2022-12-03T07:48:20.753Z,101017.66
2022-12-03T07:51:28.976Z,101024.97
2022-12-03T07:54:37.104Z,101026.91
2022-12-03T07:57:39.745Z,101023.53
2022-12-03T08:00:42.707Z,101019.22
2022-12-03T08:03:45.767Z,101004.62
2022-12-03T08:06:48.930Z,101003.37
2022-12-03T08:09:52.008Z,101008.69
2022-12-03T08:12:59.190Z,101011.41
2022-12-03T08:16:13.879Z,101014.34
2022-12-03T08:19:18.033Z,101016.94
2022-12-03T08:22:22.723Z,101014.13
2022-12-03T08:25:28.875Z,101011.62
2022-12-03T08:28:31.932Z,101017.34
2022-12-03T08:31:34.969Z,101023.91
2022-12-03T08:34:41.421Z,101025.62
2022-12-03T08:37:43.923Z,101024.53
2022-12-03T08:40:48.948Z,101033.25
2022-12-03T08:43:51.787Z,101023.59
2022-12-03T08:47:24.472Z,101031.44
2022-12-03T08:50:27.292Z,101018.66
2022-12-03T08:53:50.910Z,101023.00
2022-12-03T08:56:53.891Z,101015.19
2022-12-03T09:00:12.612Z,101024.38
2022-12-03T09:03:19.025Z,101039.91
2022-12-03T09:06:22.964Z,101035.91
2022-12-03T09:09:26.369Z,101041.03
2022-12-03T09:12:29.170Z,101043.34
2022-12-03T09:15:31.701Z,101039.72
2022-12-03T09:18:34.905Z,101027.66
2022-12-03T09:21:37.939Z,101025.75
2022-12-03T09:24:41.217Z,101029.53
2022-12-03T09:27:43.860Z,101025.69
2022-12-03T09:30:47.050Z,101030.53
2022-12-03T09:33:51.981Z,101017.91
2022-12-03T09:36:54.741Z,101014.56
2022-12-03T09:39:58.590Z,101006.31
2022-12-03T09:43:01.583Z,101008.22
2022-12-03T09:46:05.688Z,100997.16
2022-12-03T09:49:15.801Z,101003.06
2022-12-03T09:52:26.128Z,100997.34
2022-12-03T09:55:29.606Z,100993.72
2022-12-03T09:58:35.045Z,100990.53
2022-12-03T10:01:38.594Z,100986.75
2022-12-03T10:04:41.577Z,100995.28
2022-12-03T10:07:44.477Z,100995.19
2022-12-03T10:10:51.965Z,100998.53
2022-12-03T10:13:56.694Z,100993.34
2022-12-03T10:17:00.176Z,100983.94
2022-12-03T10:20:02.869Z,100982.87
2022-12-03T10:23:08.159Z,100973.56
2022-12-03T10:26:10.969Z,100973.19
2022-12-03T10:29:18.571Z,100971.19
2022-12-03T10:32:25.857Z,100965.72
2022-12-03T10:35:41.230Z,100955.16
2022-12-03T10:38:44.371Z,100956.09
2022-12-03T10:41:47.766Z,100962.31
2022-12-03T10:45:06.322Z,100955.44
2022-12-03T10:48:21.100Z,100954.31
2022-12-03T10:51:24.025Z,100948.09
2022-12-03T10:54:28.465Z,100939.53
2022-12-03T10:57:31.223Z,100961.69
2022-12-03T11:00:35.200Z,100950.31
2022-12-03T11:03:37.815Z,100932.34
2022-12-03T11:06:41.237Z,100933.47
2022-12-03T11:09:46.554Z,100928.28
2022-12-03T11:13:27.958Z,100924.97
2022-12-03T11:16:42.610Z,100931.75
2022-12-03T11:19:47.850Z,100924.63
2022-12-03T11:22:55.228Z,100919.22
2022-12-03T11:25:58.143Z,100913.03
2022-12-03T11:29:00.722Z,100918.63
2022-12-03T11:32:05.684Z,100915.09
2022-12-03T11:35:24.191Z,100905.84
2022-12-03T11:38:47.343Z,100908.06
2022-12-03T11:42:27.327Z,100906.78
2022-12-03T11:45:33.645Z,100910.59
2022-12-03T11:48:45.067Z,100894.03
2022-12-03T11:51:48.939Z,100893.06
2022-12-03T11:55:02.856Z,100894.16
2022-12-03T11:58:27.323Z,100887.34
2022-12-03T12:01:41.280Z,100893.38
2022-12-03T12:04:47.128Z,100883.38
2022-12-03T12:07:50.324Z,100886.41
2022-12-03T12:10:56.620Z,100882.59
2022-12-03T12:14:04.800Z,100882.34
2022-12-03T12:17:29.431Z,100872.69
2022-12-03T12:20:32.072Z,100881.84
2022-12-03T12:23:36.367Z,100870.63
2022-12-03T12:26:38.771Z,100868.63
2022-12-03T12:29:43.622Z,100873.63
2022-12-03T12:32:47.633Z,100863.53
2022-12-03T12:35:51.323Z,100875.84
2022-12-03T12:38:53.923Z,100862.22
2022-12-03T12:41:57.679Z,100878.75
2022-12-03T12:45:26.086Z,100879.44
2022-12-03T12:48:35.245Z,100865.16
2022-12-03T12:51:44.060Z,100868.53
2022-12-03T12:54:47.133Z,100865.41
2022-12-03T12:57:49.937Z,100859.69
2022-12-03T13:01:07.977Z,100867.72
2022-12-03T13:04:19.482Z,100857.84
2022-12-03T13:07:22.690Z,100849.41
2022-12-03T13:10:33.101Z,100852.94
2022-12-03T13:13:44.037Z,100846.28
2022-12-03T13:16:49.108Z,100843.56
2022-12-03T13:20:05.197Z,100845.28
2022-12-03T13:23:26.343Z,100846.87
2022-12-03T13:26:38.964Z,100846.06
2022-12-03T13:29:41.939Z,100855.78
2022-12-03T13:32:44.850Z,100856.16
2022-12-03T13:35:47.961Z,100849.41
2022-12-03T13:38:51.102Z,100847.53
2022-12-03T13:42:13.654Z,100857.06
2022-12-03T13:45:16.401Z,100867.72
2022-12-03T13:48:25.722Z,100858.41
2022-12-03T13:51:35.495Z,100862.88
2022-12-03T13:54:39.451Z,100864.25
2022-12-03T13:57:42.512Z,100853.47
2022-12-03T14:00:45.999Z,100846.87
2022-12-03T14:03:51.550Z,100853.06
2022-12-03T14:06:56.593Z,100862.69
2022-12-03T14:09:59.443Z,100865.53
2022-12-03T14:13:02.184Z,100864.41
2022-12-03T14:16:05.519Z,100867.81
2022-12-03T14:19:09.983Z,100872.94
2022-12-03T14:22:13.150Z,100867.13
2022-12-03T14:25:16.022Z,100870.06
2022-12-03T14:28:18.950Z,100877.91
2022-12-03T14:31:21.709Z,100865.47
2022-12-03T14:34:24.781Z,100869.19
2022-12-03T14:37:27.287Z,100868.13
2022-12-03T14:40:30.149Z,100872.03
2022-12-03T14:43:33.104Z,100870.19
2022-12-03T14:46:36.570Z,100873.66
2022-12-03T14:49:39.561Z,100869.59
2022-12-03T14:52:43.375Z,100876.06
2022-12-03T14:55:48.136Z,100873.94
2022-12-03T14:58:51.495Z,100885.03
2022-12-03T15:01:57.980Z,100883.84
2022-12-03T15:05:01.965Z,100880.47
2022-12-03T15:08:11.183Z,100882.69
2022-12-03T15:11:22.657Z,100877.91
2022-12-03T15:14:25.485Z,100886.16
2022-12-03T15:17:31.986Z,100884.81
2022-12-03T15:20:35.652Z,100891.03
2022-12-03T15:23:38.885Z,100884.25
2022-12-03T15:26:41.486Z,100881.84
2022-12-03T15:29:44.297Z,100884.03
2022-12-03T15:32:47.661Z,100882.09
2022-12-03T15:35:50.826Z,100884.37
2022-12-03T15:38:53.631Z,100882.34
2022-12-03T15:41:56.804Z,100881.31
2022-12-03T15:44:59.357Z,100882.62
2022-12-03T15:48:03.107Z,100878.03
2022-12-03T15:51:07.089Z,100877.06
2022-12-03T15:54:12.387Z,100882.94
2022-12-03T15:57:15.729Z,100881.69
2022-12-03T16:00:21.456Z,100880.38
2022-12-03T16:03:24.479Z,100872.75
2022-12-03T16:06:29.656Z,100868.72
2022-12-03T16:09:35.941Z,100866.38
2022-12-03T16:12:38.572Z,100868.31
2022-12-03T16:15:41.941Z,100870.87
2022-12-03T16:18:45.101Z,100877.53
2022-12-03T16:21:47.972Z,100882.31
2022-12-03T16:24:50.743Z,100884.50
2022-12-03T16:27:53.528Z,100880.22
2022-12-03T16:30:56.090Z,100885.84
2022-12-03T16:33:59.871Z,100882.38
2022-12-03T16:37:05.086Z,100887.63
2022-12-03T16:40:20.088Z,100890.69
2022-12-03T16:43:23.151Z,100889.44
2022-12-03T16:46:30.247Z,100889.19
2022-12-03T16:49:33.177Z,100881.59
2022-12-03T16:52:36.112Z,100896.88
2022-12-03T16:55:39.012Z,100891.66
2022-12-03T16:58:42.916Z,100885.22
2022-12-03T17:01:45.514Z,100885.00
2022-12-03T17:04:48.824Z,100878.19
2022-12-03T17:07:51.664Z,100883.88
2022-12-03T17:10:54.594Z,100883.75
2022-12-03T17:13:57.431Z,100884.34
2022-12-03T17:17:00.687Z,100880.25
2022-12-03T17:20:06.367Z,100877.66
2022-12-03T17:23:10.477Z,100875.13
2022-12-03T17:26:13.024Z,100878.78
2022-12-03T17:29:16.173Z,100888.25
2022-12-03T17:32:18.759Z,100888.19
2022-12-03T17:35:22.095Z,100887.25
2022-12-03T17:38:33.990Z,100892.50
2022-12-03T17:41:47.358Z,100881.94
2022-12-03T17:44:51.186Z,100887.47
2022-12-03T17:47:54.168Z,100891.66
2022-12-03T17:51:01.529Z,100889.09
2022-12-03T17:54:05.101Z,100885.47
2022-12-03T17:57:07.890Z,100881.94
2022-12-03T18:00:14.970Z,100887.87
2022-12-03T18:03:18.287Z,100891.53
2022-12-03T18:06:23.892Z,100888.25
2022-12-03T18:09:28.212Z,100890.00
2022-12-03T18:12:30.917Z,100889.09
2022-12-03T18:15:36.872Z,100889.22
2022-12-03T18:18:55.024Z,100890.91
2022-12-03T18:22:02.610Z,100881.47
2022-12-03T18:25:07.388Z,100890.91
2022-12-03T18:28:10.964Z,100884.06
2022-12-03T18:31:15.508Z,100889.81
2022-12-03T18:34:19.506Z,100886.16
2022-12-03T18:37:27.066Z,100886.62
2022-12-03T18:40:32.432Z,100890.94
2022-12-03T18:43:35.363Z,100890.78
2022-12-03T18:46:53.002Z,100889.16
2022-12-03T18:49:59.674Z,100887.59
2022-12-03T18:53:03.298Z,100899.69
2022-12-03T18:56:07.977Z,100892.41
2022-12-03T18:59:11.395Z,100897.06
2022-12-03T19:02:32.477Z,100891.06
2022-12-03T19:05:40.746Z,100898.41
2022-12-03T19:08:45.128Z,100882.31
2022-12-03T19:11:48.876Z,100881.97
2022-12-03T19:14:51.862Z,100882.03
2022-12-03T19:18:00.861Z,100884.03
2022-12-03T19:21:09.068Z,100884.03
2022-12-03T19:24:27.532Z,100892.19
2022-12-03T19:27:32.148Z,100895.38
2022-12-03T19:30:38.050Z,100900.38
2022-12-03T19:33:42.640Z,100890.50
2022-12-03T19:36:47.503Z,100889.66
2022-12-03T19:39:54.215Z,100889.94
2022-12-03T19:42:59.927Z,100901.03
2022-12-03T19:46:12.355Z,100893.44
2022-12-03T19:49:18.702Z,100891.41
2022-12-03T19:52:25.463Z,100896.53
2022-12-03T19:55:28.649Z,100906.00
2022-12-03T19:58:31.833Z,100899.13
2022-12-03T20:01:36.568Z,100902.47
2022-12-03T20:04:39.846Z,100903.72
2022-12-03T20:07:42.897Z,100910.22
2022-12-03T20:10:46.511Z,100905.94
2022-12-03T20:13:54.097Z,100907.75
2022-12-03T20:16:57.316Z,100904.91
2022-12-03T20:20:00.182Z,100908.63
2022-12-03T20:23:03.895Z,100917.97
2022-12-03T20:26:09.107Z,100908.66
2022-12-03T20:29:12.550Z,100904.03
2022-12-03T20:32:15.376Z,100903.09
2022-12-03T20:35:18.424Z,100905.38
2022-12-03T20:38:22.497Z,100908.00
2022-12-03T20:41:25.879Z,100906.72
2022-12-03T20:44:28.627Z,100903.09
2022-12-03T20:47:32.578Z,100903.44
2022-12-03T20:50:39.851Z,100906.22
2022-12-03T20:53:43.733Z,100900.31
2022-12-03T20:56:47.442Z,100902.31
2022-12-03T20:59:54.721Z,100907.06
2022-12-03T21:02:57.796Z,100903.94
2022-12-03T21:06:01.710Z,100905.88
2022-12-03T21:09:08.702Z,100901.75
2022-12-03T21:12:11.993Z,100895.28
2022-12-03T21:15:14.754Z,100884.13
2022-12-03T21:18:17.821Z,100878.81
2022-12-03T21:21:20.717Z,100886.41
2022-12-03T21:24:23.716Z,100883.56
2022-12-03T21:27:26.583Z,100894.56
2022-12-03T21:30:36.633Z,100902.94
2022-12-03T21:33:39.733Z,100901.81
2022-12-03T21:36:43.291Z,100899.25
2022-12-03T21:39:45.786Z,100898.13
2022-12-03T21:42:48.940Z,100894.78
2022-12-03T21:45:52.501Z,100895.03
2022-12-03T21:48:56.019Z,100890.66
2022-12-03T21:51:59.821Z,100888.22
2022-12-03T21:55:02.792Z,100887.97
2022-12-03T21:58:05.357Z,100886.34
2022-12-03T22:01:18.351Z,100888.28
2022-12-03T22:04:21.629Z,100890.84
2022-12-03T22:07:24.156Z,100884.03
2022-12-03T22:10:27.749Z,100888.75
2022-12-03T22:13:30.285Z,100881.66
2022-12-03T22:16:34.332Z,100878.63
2022-12-03T22:19:36.968Z,100882.03
2022-12-03T22:22:40.019Z,100888.56
2022-12-03T22:25:42.695Z,100885.06
2022-12-03T22:28:47.697Z,100886.88
2022-12-03T22:31:50.537Z,100882.13
2022-12-03T22:34:54.334Z,100876.53
2022-12-03T22:37:56.978Z,100870.97
2022-12-03T22:41:00.133Z,100877.22
2022-12-03T22:44:02.943Z,100872.97
2022-12-03T22:47:06.242Z,100872.66
2022-12-03T22:50:09.166Z,100876.06
2022-12-03T22:53:12.796Z,100872.06
2022-12-03T22:56:16.057Z,100873.12
2022-12-03T22:59:19.022Z,100867.50
2022-12-03T23:02:21.611Z,100867.44
2022-12-03T23:05:24.548Z,100872.25
2022-12-03T23:08:29.897Z,100873.97
2022-12-03T23:11:34.258Z,100876.12
2022-12-03T23:14:37.201Z,100873.81
2022-12-03T23:17:40.207Z,100872.25
2022-12-03T23:20:45.074Z,100869.22
2022-12-03T23:23:48.006Z,100872.69
2022-12-03T23:26:50.647Z,100861.56
2022-12-03T23:29:53.703Z,100860.69
2022-12-03T23:32:56.591Z,100860.94
2022-12-03T23:36:00.136Z,100857.81
2022-12-03T23:39:03.091Z,100848.44
2022-12-03T23:42:05.944Z,100843.37
2022-12-03T23:45:09.404Z,100850.31
2022-12-03T23:48:13.280Z,100850.00
2022-12-03T23:51:21.781Z,100851.56
2022-12-03T23:54:24.592Z,100844.75
2022-12-03T23:57:27.409Z,100841.94
